sensor_id;sensor_type;location;lat;lon;timestamp;temperature;humidity
46091;DHT22;31826;53.572;10.170;2023-12-04T00:02:14;-1.40;99.90
46091;DHT22;31826;53.572;10.170;2023-12-04T00:04:40;-1.50;99.90
46091;DHT22;31826;53.572;10.170;2023-12-04T00:07:06;-1.50;99.90
46091;DHT22;31826;53.572;10.170;2023-12-04T00:09:31;-1.50;99.90
46091;DHT22;31826;53.572;10.170;2023-12-04T00:11:57;-1.50;99.90
46091;DHT22;31826;53.572;10.170;2023-12-04T00:14:23;-1.50;99.90
46091;DHT22;31826;53.572;10.170;2023-12-04T00:16:48;-1.60;99.90
46091;DHT22;31826;53.572;10.170;2023-12-04T00:19:14;-1.50;99.90
46091;DHT22;31826;53.572;10.170;2023-12-04T00:21:40;-1.60;99.90
46091;DHT22;31826;53.572;10.170;2023-12-04T00:24:05;-1.60;99.90
46091;DHT22;31826;53.572;10.170;2023-12-04T00:26:31;-1.60;99.90
46091;DHT22;31826;53.572;10.170;2023-12-04T00:28:57;-1.60;99.90
46091;DHT22;31826;53.572;10.170;2023-12-04T00:31:22;-1.60;99.90
46091;DHT22;31826;53.572;10.170;2023-12-04T00:33:48;-1.70;99.90
46091;DHT22;31826;53.572;10.170;2023-12-04T00:36:14;-1.60;99.90
46091;DHT22;31826;53.572;10.170;2023-12-04T00:38:40;-1.70;99.90
46091;DHT22;31826;53.572;10.170;2023-12-04T00:41:06;-1.70;99.90
46091;DHT22;31826;53.572;10.170;2023-12-04T00:43:31;-1.70;99.90
46091;DHT22;31826;53.572;10.170;2023-12-04T00:45:57;-1.70;99.90
46091;DHT22;31826;53.572;10.170;2023-12-04T00:48:23;-1.70;99.90
46091;DHT22;31826;53.572;10.170;2023-12-04T00:50:48;-1.60;99.90
46091;DHT22;31826;53.572;10.170;2023-12-04T00:53:14;-1.70;99.90
46091;DHT22;31826;53.572;10.170;2023-12-04T00:55:39;-1.70;99.90
46091;DHT22;31826;53.572;10.170;2023-12-04T00:58:05;-1.70;99.90
46091;DHT22;31826;53.572;10.170;2023-12-04T01:00:31;-1.70;99.90
46091;DHT22;31826;53.572;10.170;2023-12-04T01:02:56;-1.70;99.90
46091;DHT22;31826;53.572;10.170;2023-12-04T01:05:22;-1.70;99.90
46091;DHT22;31826;53.572;10.170;2023-12-04T01:07:48;-1.70;99.90
46091;DHT22;31826;53.572;10.170;2023-12-04T01:10:14;-1.70;99.90
46091;DHT22;31826;53.572;10.170;2023-12-04T01:12:39;-1.80;99.90
46091;DHT22;31826;53.572;10.170;2023-12-04T01:15:05;-1.80;99.90
46091;DHT22;31826;53.572;10.170;2023-12-04T01:17:31;-1.80;99.90
46091;DHT22;31826;53.572;10.170;2023-12-04T01:19:57;-1.80;99.90
46091;DHT22;31826;53.572;10.170;2023-12-04T01:22:23;-1.80;99.90
46091;DHT22;31826;53.572;10.170;2023-12-04T01:24:48;-1.70;99.90
46091;DHT22;31826;53.572;10.170;2023-12-04T01:27:14;-1.80;99.90
46091;DHT22;31826;53.572;10.170;2023-12-04T01:29:40;-1.80;99.90
46091;DHT22;31826;53.572;10.170;2023-12-04T01:32:06;-1.90;99.90
46091;DHT22;31826;53.572;10.170;2023-12-04T01:34:31;-1.90;99.90
46091;DHT22;31826;53.572;10.170;2023-12-04T01:36:57;-1.90;99.90
46091;DHT22;31826;53.572;10.170;2023-12-04T01:39:23;-1.90;99.90
46091;DHT22;31826;53.572;10.170;2023-12-04T01:41:48;-1.90;99.90
46091;DHT22;31826;53.572;10.170;2023-12-04T01:44:14;-1.90;99.90
46091;DHT22;31826;53.572;10.170;2023-12-04T01:46:41;-1.90;99.90
46091;DHT22;31826;53.572;10.170;2023-12-04T01:49:07;-1.70;99.90
46091;DHT22;31826;53.572;10.170;2023-12-04T01:51:33;-1.80;99.90
46091;DHT22;31826;53.572;10.170;2023-12-04T01:54:03;-1.80;99.90
46091;DHT22;31826;53.572;10.170;2023-12-04T01:56:30;-1.90;99.90
46091;DHT22;31826;53.572;10.170;2023-12-04T01:58:56;-1.90;99.90
46091;DHT22;31826;53.572;10.170;2023-12-04T02:01:23;-2.00;99.90
46091;DHT22;31826;53.572;10.170;2023-12-04T02:03:49;-1.90;99.90
46091;DHT22;31826;53.572;10.170;2023-12-04T02:06:16;-1.90;99.90
46091;DHT22;31826;53.572;10.170;2023-12-04T02:08:42;-2.00;99.90
46091;DHT22;31826;53.572;10.170;2023-12-04T02:11:08;-1.90;99.90
46091;DHT22;31826;53.572;10.170;2023-12-04T02:13:35;-1.40;99.90
46091;DHT22;31826;53.572;10.170;2023-12-04T02:16:03;-1.80;99.90
46091;DHT22;31826;53.572;10.170;2023-12-04T02:18:34;-2.00;99.90
46091;DHT22;31826;53.572;10.170;2023-12-04T02:21:03;-2.00;99.90
46091;DHT22;31826;53.572;10.170;2023-12-04T02:23:29;-1.90;99.90
46091;DHT22;31826;53.572;10.170;2023-12-04T02:25:59;-2.00;99.90
46091;DHT22;31826;53.572;10.170;2023-12-04T02:28:32;-2.00;99.90
46091;DHT22;31826;53.572;10.170;2023-12-04T02:30:59;-2.00;99.90
46091;DHT22;31826;53.572;10.170;2023-12-04T02:33:26;-2.00;99.90
46091;DHT22;31826;53.572;10.170;2023-12-04T02:35:53;-2.10;99.90
46091;DHT22;31826;53.572;10.170;2023-12-04T02:38:19;-2.00;99.90
46091;DHT22;31826;53.572;10.170;2023-12-04T02:40:45;-2.10;99.90
46091;DHT22;31826;53.572;10.170;2023-12-04T02:43:11;-2.10;99.90
46091;DHT22;31826;53.572;10.170;2023-12-04T02:45:36;-2.20;99.90
46091;DHT22;31826;53.572;10.170;2023-12-04T02:48:02;-2.20;99.90
46091;DHT22;31826;53.572;10.170;2023-12-04T02:50:28;-2.20;99.90
46091;DHT22;31826;53.572;10.170;2023-12-04T02:52:54;-2.20;99.90
46091;DHT22;31826;53.572;10.170;2023-12-04T02:55:19;-2.10;99.90
46091;DHT22;31826;53.572;10.170;2023-12-04T02:57:45;-2.30;99.90
46091;DHT22;31826;53.572;10.170;2023-12-04T03:00:11;-2.30;99.90
46091;DHT22;31826;53.572;10.170;2023-12-04T03:02:37;-2.20;99.90
46091;DHT22;31826;53.572;10.170;2023-12-04T03:05:03;-2.30;99.90
46091;DHT22;31826;53.572;10.170;2023-12-04T03:07:28;-2.30;99.90
46091;DHT22;31826;53.572;10.170;2023-12-04T03:09:54;-2.20;99.90
46091;DHT22;31826;53.572;10.170;2023-12-04T03:12:20;-2.30;99.90
46091;DHT22;31826;53.572;10.170;2023-12-04T03:14:45;-2.30;99.90
46091;DHT22;31826;53.572;10.170;2023-12-04T03:17:11;-2.30;99.90
46091;DHT22;31826;53.572;10.170;2023-12-04T03:19:37;-2.40;99.90
46091;DHT22;31826;53.572;10.170;2023-12-04T03:22:02;-2.30;99.90
46091;DHT22;31826;53.572;10.170;2023-12-04T03:24:28;-2.30;99.90
46091;DHT22;31826;53.572;10.170;2023-12-04T03:26:54;-2.30;99.90
46091;DHT22;31826;53.572;10.170;2023-12-04T03:29:19;-2.30;99.90
46091;DHT22;31826;53.572;10.170;2023-12-04T03:31:45;-2.30;99.90
46091;DHT22;31826;53.572;10.170;2023-12-04T03:34:11;-2.40;99.90
46091;DHT22;31826;53.572;10.170;2023-12-04T03:36:36;-2.40;99.90
46091;DHT22;31826;53.572;10.170;2023-12-04T03:39:02;-2.30;99.90
46091;DHT22;31826;53.572;10.170;2023-12-04T03:41:28;-2.40;99.90
46091;DHT22;31826;53.572;10.170;2023-12-04T03:43:53;-2.30;99.90
46091;DHT22;31826;53.572;10.170;2023-12-04T03:46:19;-2.30;99.90
46091;DHT22;31826;53.572;10.170;2023-12-04T03:48:45;-2.30;99.90
46091;DHT22;31826;53.572;10.170;2023-12-04T03:51:11;-2.30;99.90
46091;DHT22;31826;53.572;10.170;2023-12-04T03:53:37;-2.30;99.90
46091;DHT22;31826;53.572;10.170;2023-12-04T03:56:03;-2.40;99.90
46091;DHT22;31826;53.572;10.170;2023-12-04T03:58:28;-2.40;99.90
46091;DHT22;31826;53.572;10.170;2023-12-04T04:00:54;-2.30;99.90
46091;DHT22;31826;53.572;10.170;2023-12-04T04:03:20;-2.40;99.90
46091;DHT22;31826;53.572;10.170;2023-12-04T04:05:45;-2.40;99.90
46091;DHT22;31826;53.572;10.170;2023-12-04T04:08:11;-2.50;99.90
46091;DHT22;31826;53.572;10.170;2023-12-04T04:10:37;-2.40;99.90
46091;DHT22;31826;53.572;10.170;2023-12-04T04:13:02;-2.50;99.90
46091;DHT22;31826;53.572;10.170;2023-12-04T04:15:28;-2.50;99.90
46091;DHT22;31826;53.572;10.170;2023-12-04T04:17:54;-2.50;99.90
46091;DHT22;31826;53.572;10.170;2023-12-04T04:20:20;-2.50;99.90
46091;DHT22;31826;53.572;10.170;2023-12-04T04:22:48;-2.50;99.90
46091;DHT22;31826;53.572;10.170;2023-12-04T04:25:14;-2.60;99.90
46091;DHT22;31826;53.572;10.170;2023-12-04T04:27:39;-2.60;99.90
46091;DHT22;31826;53.572;10.170;2023-12-04T04:30:05;-2.60;99.90
46091;DHT22;31826;53.572;10.170;2023-12-04T04:32:31;-2.70;99.90
46091;DHT22;31826;53.572;10.170;2023-12-04T04:34:57;-2.70;99.90
46091;DHT22;31826;53.572;10.170;2023-12-04T04:37:22;-2.70;99.90
46091;DHT22;31826;53.572;10.170;2023-12-04T04:39:48;-2.60;99.90
46091;DHT22;31826;53.572;10.170;2023-12-04T04:42:14;-2.60;99.90
46091;DHT22;31826;53.572;10.170;2023-12-04T04:44:40;-2.70;99.90
46091;DHT22;31826;53.572;10.170;2023-12-04T04:47:06;-2.60;99.90
46091;DHT22;31826;53.572;10.170;2023-12-04T04:49:32;-2.60;99.90
46091;DHT22;31826;53.572;10.170;2023-12-04T04:51:57;-2.60;99.90
46091;DHT22;31826;53.572;10.170;2023-12-04T04:54:23;-2.50;99.90
46091;DHT22;31826;53.572;10.170;2023-12-04T04:56:49;-2.50;99.90
46091;DHT22;31826;53.572;10.170;2023-12-04T04:59:14;-2.60;99.90
46091;DHT22;31826;53.572;10.170;2023-12-04T05:01:40;-2.50;99.90
46091;DHT22;31826;53.572;10.170;2023-12-04T05:04:06;-2.30;99.90
46091;DHT22;31826;53.572;10.170;2023-12-04T05:06:32;-2.30;99.90
46091;DHT22;31826;53.572;10.170;2023-12-04T05:08:58;-2.40;99.90
46091;DHT22;31826;53.572;10.170;2023-12-04T05:11:23;-2.30;99.90
46091;DHT22;31826;53.572;10.170;2023-12-04T05:13:49;-2.30;99.90
46091;DHT22;31826;53.572;10.170;2023-12-04T05:16:15;-2.20;99.90
46091;DHT22;31826;53.572;10.170;2023-12-04T05:18:41;-2.10;99.90
46091;DHT22;31826;53.572;10.170;2023-12-04T05:21:11;-2.20;99.90
46091;DHT22;31826;53.572;10.170;2023-12-04T05:23:39;-2.10;99.90
46091;DHT22;31826;53.572;10.170;2023-12-04T05:26:06;-2.10;99.90
46091;DHT22;31826;53.572;10.170;2023-12-04T05:28:33;-2.00;99.90
46091;DHT22;31826;53.572;10.170;2023-12-04T05:30:58;-2.10;99.90
46091;DHT22;31826;53.572;10.170;2023-12-04T05:33:24;-2.00;99.90
46091;DHT22;31826;53.572;10.170;2023-12-04T05:35:50;-2.00;99.90
46091;DHT22;31826;53.572;10.170;2023-12-04T05:38:19;-2.00;99.90
46091;DHT22;31826;53.572;10.170;2023-12-04T05:40:44;-2.00;99.90
46091;DHT22;31826;53.572;10.170;2023-12-04T05:43:10;-2.10;99.90
46091;DHT22;31826;53.572;10.170;2023-12-04T05:45:36;-2.10;99.90
46091;DHT22;31826;53.572;10.170;2023-12-04T05:48:02;-2.20;99.90
46091;DHT22;31826;53.572;10.170;2023-12-04T05:50:28;-2.20;99.90
46091;DHT22;31826;53.572;10.170;2023-12-04T05:52:54;-2.20;99.90
46091;DHT22;31826;53.572;10.170;2023-12-04T05:55:19;-2.20;99.90
46091;DHT22;31826;53.572;10.170;2023-12-04T05:57:46;-2.20;99.90
46091;DHT22;31826;53.572;10.170;2023-12-04T06:00:12;-2.20;99.90
46091;DHT22;31826;53.572;10.170;2023-12-04T06:02:44;-2.20;99.90
46091;DHT22;31826;53.572;10.170;2023-12-04T06:05:11;-2.20;99.90
46091;DHT22;31826;53.572;10.170;2023-12-04T06:07:37;-2.30;99.90
46091;DHT22;31826;53.572;10.170;2023-12-04T06:10:03;-2.20;99.90
46091;DHT22;31826;53.572;10.170;2023-12-04T06:12:32;-2.30;99.90
46091;DHT22;31826;53.572;10.170;2023-12-04T06:14:58;-2.30;99.90
46091;DHT22;31826;53.572;10.170;2023-12-04T06:17:25;-2.20;99.90
46091;DHT22;31826;53.572;10.170;2023-12-04T06:19:51;-2.30;99.90
46091;DHT22;31826;53.572;10.170;2023-12-04T06:22:17;-2.30;99.90
46091;DHT22;31826;53.572;10.170;2023-12-04T06:24:45;-2.30;99.90
46091;DHT22;31826;53.572;10.170;2023-12-04T06:27:15;-2.30;99.90
46091;DHT22;31826;53.572;10.170;2023-12-04T06:29:43;-2.30;99.90
46091;DHT22;31826;53.572;10.170;2023-12-04T06:32:09;-2.30;99.90
46091;DHT22;31826;53.572;10.170;2023-12-04T06:34:35;-2.40;99.90
46091;DHT22;31826;53.572;10.170;2023-12-04T06:37:02;-2.30;99.90
46091;DHT22;31826;53.572;10.170;2023-12-04T06:39:32;-2.30;99.90
46091;DHT22;31826;53.572;10.170;2023-12-04T06:41:59;-2.40;99.90
46091;DHT22;31826;53.572;10.170;2023-12-04T06:44:25;-2.30;99.90
46091;DHT22;31826;53.572;10.170;2023-12-04T06:46:52;-2.30;99.90
46091;DHT22;31826;53.572;10.170;2023-12-04T06:49:19;-2.30;99.90
46091;DHT22;31826;53.572;10.170;2023-12-04T06:51:45;-2.30;99.90
46091;DHT22;31826;53.572;10.170;2023-12-04T06:54:10;-2.30;99.90
46091;DHT22;31826;53.572;10.170;2023-12-04T06:56:38;-2.40;99.90
46091;DHT22;31826;53.572;10.170;2023-12-04T06:59:04;-2.30;99.90
46091;DHT22;31826;53.572;10.170;2023-12-04T07:01:30;-2.40;99.90
46091;DHT22;31826;53.572;10.170;2023-12-04T07:03:55;-2.30;99.90
46091;DHT22;31826;53.572;10.170;2023-12-04T07:06:21;-2.30;99.90
46091;DHT22;31826;53.572;10.170;2023-12-04T07:08:47;-2.30;99.90
46091;DHT22;31826;53.572;10.170;2023-12-04T07:11:13;-2.20;99.90
46091;DHT22;31826;53.572;10.170;2023-12-04T07:13:41;-2.30;99.90
46091;DHT22;31826;53.572;10.170;2023-12-04T07:16:07;-2.30;99.90
46091;DHT22;31826;53.572;10.170;2023-12-04T07:18:33;-2.20;99.90
46091;DHT22;31826;53.572;10.170;2023-12-04T07:21:00;-2.10;99.90
46091;DHT22;31826;53.572;10.170;2023-12-04T07:23:26;-2.20;99.90
46091;DHT22;31826;53.572;10.170;2023-12-04T07:25:52;-2.20;99.90
46091;DHT22;31826;53.572;10.170;2023-12-04T07:28:18;-2.20;99.90
46091;DHT22;31826;53.572;10.170;2023-12-04T07:30:45;-2.20;99.90
46091;DHT22;31826;53.572;10.170;2023-12-04T07:33:10;-2.20;99.90
46091;DHT22;31826;53.572;10.170;2023-12-04T07:35:36;-2.10;99.90
46091;DHT22;31826;53.572;10.170;2023-12-04T07:38:02;-2.20;99.90
46091;DHT22;31826;53.572;10.170;2023-12-04T07:40:28;-2.20;99.90
46091;DHT22;31826;53.572;10.170;2023-12-04T07:42:54;-2.20;99.90
46091;DHT22;31826;53.572;10.170;2023-12-04T07:45:19;-2.20;99.90
46091;DHT22;31826;53.572;10.170;2023-12-04T07:47:46;-2.00;99.90
46091;DHT22;31826;53.572;10.170;2023-12-04T07:50:12;-2.20;99.90
46091;DHT22;31826;53.572;10.170;2023-12-04T07:52:38;-2.20;99.90
46091;DHT22;31826;53.572;10.170;2023-12-04T07:55:04;-2.10;99.90
46091;DHT22;31826;53.572;10.170;2023-12-04T07:57:30;-2.20;99.90
46091;DHT22;31826;53.572;10.170;2023-12-04T07:59:55;-2.20;99.90
46091;DHT22;31826;53.572;10.170;2023-12-04T08:02:21;-2.10;99.90
46091;DHT22;31826;53.572;10.170;2023-12-04T08:04:47;-2.20;99.90
46091;DHT22;31826;53.572;10.170;2023-12-04T08:07:12;-2.10;99.90
46091;DHT22;31826;53.572;10.170;2023-12-04T08:09:39;-2.10;99.90
46091;DHT22;31826;53.572;10.170;2023-12-04T08:12:05;-2.20;99.90
46091;DHT22;31826;53.572;10.170;2023-12-04T08:14:31;-2.20;99.90
46091;DHT22;31826;53.572;10.170;2023-12-04T08:16:58;-2.10;99.90
46091;DHT22;31826;53.572;10.170;2023-12-04T08:19:24;-2.10;99.90
46091;DHT22;31826;53.572;10.170;2023-12-04T08:21:49;-2.10;99.90
46091;DHT22;31826;53.572;10.170;2023-12-04T08:24:15;-2.10;99.90
46091;DHT22;31826;53.572;10.170;2023-12-04T08:26:46;-2.10;99.90
46091;DHT22;31826;53.572;10.170;2023-12-04T08:29:12;-2.00;99.90
46091;DHT22;31826;53.572;10.170;2023-12-04T08:31:37;-2.00;99.90
46091;DHT22;31826;53.572;10.170;2023-12-04T08:34:03;-1.90;99.90
46091;DHT22;31826;53.572;10.170;2023-12-04T08:36:29;-1.90;99.90
46091;DHT22;31826;53.572;10.170;2023-12-04T08:38:55;-1.90;99.90
46091;DHT22;31826;53.572;10.170;2023-12-04T08:41:21;-1.90;99.90
46091;DHT22;31826;53.572;10.170;2023-12-04T08:43:46;-1.80;99.90
46091;DHT22;31826;53.572;10.170;2023-12-04T08:46:13;-1.80;99.90
46091;DHT22;31826;53.572;10.170;2023-12-04T08:48:40;-1.80;99.90
46091;DHT22;31826;53.572;10.170;2023-12-04T08:51:06;-1.80;99.90
46091;DHT22;31826;53.572;10.170;2023-12-04T08:53:34;-1.70;99.90
46091;DHT22;31826;53.572;10.170;2023-12-04T08:55:59;-1.70;99.90
46091;DHT22;31826;53.572;10.170;2023-12-04T08:58:25;-1.70;99.90
46091;DHT22;31826;53.572;10.170;2023-12-04T09:00:51;-1.80;99.90
46091;DHT22;31826;53.572;10.170;2023-12-04T09:03:16;-1.60;99.90
46091;DHT22;31826;53.572;10.170;2023-12-04T09:05:42;-1.60;99.90
46091;DHT22;31826;53.572;10.170;2023-12-04T09:08:08;-1.60;99.90
46091;DHT22;31826;53.572;10.170;2023-12-04T09:10:34;-1.60;99.90
46091;DHT22;31826;53.572;10.170;2023-12-04T09:12:59;-1.50;99.90
46091;DHT22;31826;53.572;10.170;2023-12-04T09:15:25;-1.50;99.90
46091;DHT22;31826;53.572;10.170;2023-12-04T09:17:51;-1.50;99.90
46091;DHT22;31826;53.572;10.170;2023-12-04T09:20:17;-1.50;99.90
46091;DHT22;31826;53.572;10.170;2023-12-04T09:22:42;-1.60;99.90
46091;DHT22;31826;53.572;10.170;2023-12-04T09:25:08;-1.50;99.90
46091;DHT22;31826;53.572;10.170;2023-12-04T09:27:35;-1.50;99.90
46091;DHT22;31826;53.572;10.170;2023-12-04T09:30:01;-1.40;99.90
46091;DHT22;31826;53.572;10.170;2023-12-04T09:32:27;-1.40;99.90
46091;DHT22;31826;53.572;10.170;2023-12-04T09:34:53;-1.30;99.90
46091;DHT22;31826;53.572;10.170;2023-12-04T09:37:18;-1.10;99.90
46091;DHT22;31826;53.572;10.170;2023-12-04T09:39:44;-1.20;99.90
46091;DHT22;31826;53.572;10.170;2023-12-04T09:42:10;-1.20;99.90
46091;DHT22;31826;53.572;10.170;2023-12-04T09:44:36;-1.20;99.90
46091;DHT22;31826;53.572;10.170;2023-12-04T09:47:03;-1.20;99.90
46091;DHT22;31826;53.572;10.170;2023-12-04T09:49:31;-1.20;99.90
46091;DHT22;31826;53.572;10.170;2023-12-04T09:52:01;-1.10;99.90
46091;DHT22;31826;53.572;10.170;2023-12-04T09:54:29;-1.20;99.90
46091;DHT22;31826;53.572;10.170;2023-12-04T09:56:55;-1.10;99.90
46091;DHT22;31826;53.572;10.170;2023-12-04T09:59:23;-1.00;99.90
46091;DHT22;31826;53.572;10.170;2023-12-04T10:01:50;-1.10;99.90
46091;DHT22;31826;53.572;10.170;2023-12-04T10:04:16;-0.90;99.90
46091;DHT22;31826;53.572;10.170;2023-12-04T10:06:43;-1.00;99.90
46091;DHT22;31826;53.572;10.170;2023-12-04T10:09:10;-0.90;99.90
46091;DHT22;31826;53.572;10.170;2023-12-04T10:11:42;-1.00;99.90
46091;DHT22;31826;53.572;10.170;2023-12-04T10:14:19;-0.90;99.90
46091;DHT22;31826;53.572;10.170;2023-12-04T10:16:45;-0.80;99.90
46091;DHT22;31826;53.572;10.170;2023-12-04T10:19:19;-0.80;99.90
46091;DHT22;31826;53.572;10.170;2023-12-04T10:21:46;-0.80;99.90
46091;DHT22;31826;53.572;10.170;2023-12-04T10:24:12;-1.00;99.90
46091;DHT22;31826;53.572;10.170;2023-12-04T10:26:38;-1.00;99.90
46091;DHT22;31826;53.572;10.170;2023-12-04T10:29:14;-1.00;99.90
46091;DHT22;31826;53.572;10.170;2023-12-04T10:31:40;-0.90;99.90
46091;DHT22;31826;53.572;10.170;2023-12-04T10:34:06;-0.90;99.90
46091;DHT22;31826;53.572;10.170;2023-12-04T10:36:35;-0.90;99.90
46091;DHT22;31826;53.572;10.170;2023-12-04T10:39:02;-0.90;99.90
46091;DHT22;31826;53.572;10.170;2023-12-04T10:41:30;-0.90;99.90
46091;DHT22;31826;53.572;10.170;2023-12-04T10:43:59;-0.90;99.90
46091;DHT22;31826;53.572;10.170;2023-12-04T10:46:29;-0.80;99.90
46091;DHT22;31826;53.572;10.170;2023-12-04T10:48:57;-0.80;99.90
46091;DHT22;31826;53.572;10.170;2023-12-04T10:51:25;-0.80;99.90
46091;DHT22;31826;53.572;10.170;2023-12-04T10:53:51;-0.90;99.90
46091;DHT22;31826;53.572;10.170;2023-12-04T10:56:27;-0.80;99.90
46091;DHT22;31826;53.572;10.170;2023-12-04T10:58:56;-0.80;99.90
46091;DHT22;31826;53.572;10.170;2023-12-04T11:01:23;-0.80;99.90
46091;DHT22;31826;53.572;10.170;2023-12-04T11:03:53;-0.80;99.90
46091;DHT22;31826;53.572;10.170;2023-12-04T11:06:21;-0.90;99.90
46091;DHT22;31826;53.572;10.170;2023-12-04T11:08:49;-0.80;99.90
46091;DHT22;31826;53.572;10.170;2023-12-04T11:11:24;-0.90;99.90
46091;DHT22;31826;53.572;10.170;2023-12-04T11:13:55;-0.80;99.90
46091;DHT22;31826;53.572;10.170;2023-12-04T11:16:31;-0.70;99.90
46091;DHT22;31826;53.572;10.170;2023-12-04T11:22:14;-0.80;99.90
46091;DHT22;31826;53.572;10.170;2023-12-04T11:24:41;-0.80;99.90
46091;DHT22;31826;53.572;10.170;2023-12-04T11:27:07;-0.90;99.90
46091;DHT22;31826;53.572;10.170;2023-12-04T11:29:34;-0.90;99.90
46091;DHT22;31826;53.572;10.170;2023-12-04T11:32:00;-0.90;99.90
46091;DHT22;31826;53.572;10.170;2023-12-04T11:34:26;-0.80;99.90
46091;DHT22;31826;53.572;10.170;2023-12-04T11:36:51;-0.60;99.90
46091;DHT22;31826;53.572;10.170;2023-12-04T11:39:18;-0.60;99.90
46091;DHT22;31826;53.572;10.170;2023-12-04T11:41:45;-0.60;99.90
46091;DHT22;31826;53.572;10.170;2023-12-04T11:44:14;-0.50;99.90
46091;DHT22;31826;53.572;10.170;2023-12-04T11:46:55;-0.60;99.90
46091;DHT22;31826;53.572;10.170;2023-12-04T11:49:28;-0.60;99.90
46091;DHT22;31826;53.572;10.170;2023-12-04T11:52:13;-0.60;99.90
46091;DHT22;31826;53.572;10.170;2023-12-04T11:57:26;-0.60;99.90
46091;DHT22;31826;53.572;10.170;2023-12-04T11:59:52;-0.60;99.90
46091;DHT22;31826;53.572;10.170;2023-12-04T12:02:18;-0.60;99.90
46091;DHT22;31826;53.572;10.170;2023-12-04T12:04:44;-0.60;99.90
46091;DHT22;31826;53.572;10.170;2023-12-04T12:07:12;-0.60;99.90
46091;DHT22;31826;53.572;10.170;2023-12-04T12:09:38;-0.60;99.90
46091;DHT22;31826;53.572;10.170;2023-12-04T12:12:04;-0.50;99.90
46091;DHT22;31826;53.572;10.170;2023-12-04T12:14:30;-0.60;99.90
46091;DHT22;31826;53.572;10.170;2023-12-04T12:16:59;-0.60;99.90
46091;DHT22;31826;53.572;10.170;2023-12-04T12:19:25;-0.70;99.90
46091;DHT22;31826;53.572;10.170;2023-12-04T12:21:51;-0.60;99.90
46091;DHT22;31826;53.572;10.170;2023-12-04T12:24:18;-0.60;99.90
46091;DHT22;31826;53.572;10.170;2023-12-04T12:26:44;-0.60;99.90
46091;DHT22;31826;53.572;10.170;2023-12-04T12:29:11;-0.60;99.90
46091;DHT22;31826;53.572;10.170;2023-12-04T12:31:36;-0.70;99.90
46091;DHT22;31826;53.572;10.170;2023-12-04T12:34:02;-0.80;99.90
46091;DHT22;31826;53.572;10.170;2023-12-04T12:36:28;-0.70;99.90
46091;DHT22;31826;53.572;10.170;2023-12-04T12:38:54;-0.80;99.90
46091;DHT22;31826;53.572;10.170;2023-12-04T12:41:21;-0.70;99.90
46091;DHT22;31826;53.572;10.170;2023-12-04T12:43:51;-0.80;99.90
46091;DHT22;31826;53.572;10.170;2023-12-04T12:46:17;-0.80;99.90
46091;DHT22;31826;53.572;10.170;2023-12-04T12:48:44;-0.70;99.90
46091;DHT22;31826;53.572;10.170;2023-12-04T12:51:09;-0.60;99.90
46091;DHT22;31826;53.572;10.170;2023-12-04T12:53:36;-0.70;99.90
46091;DHT22;31826;53.572;10.170;2023-12-04T12:56:03;-0.60;99.90
46091;DHT22;31826;53.572;10.170;2023-12-04T12:58:29;-0.60;99.90
46091;DHT22;31826;53.572;10.170;2023-12-04T13:00:55;-0.60;99.90
46091;DHT22;31826;53.572;10.170;2023-12-04T13:03:21;-0.50;99.90
46091;DHT22;31826;53.572;10.170;2023-12-04T13:05:47;-0.50;99.90
46091;DHT22;31826;53.572;10.170;2023-12-04T13:08:13;-0.50;99.90
46091;DHT22;31826;53.572;10.170;2023-12-04T13:10:41;-0.50;99.90
46091;DHT22;31826;53.572;10.170;2023-12-04T13:13:10;-0.60;99.90
46091;DHT22;31826;53.572;10.170;2023-12-04T13:15:36;-0.60;99.90
46091;DHT22;31826;53.572;10.170;2023-12-04T13:18:02;-0.60;99.90
46091;DHT22;31826;53.572;10.170;2023-12-04T13:20:28;-0.60;99.90
46091;DHT22;31826;53.572;10.170;2023-12-04T13:22:54;-0.60;99.90
46091;DHT22;31826;53.572;10.170;2023-12-04T13:25:19;-0.60;99.90
46091;DHT22;31826;53.572;10.170;2023-12-04T13:27:46;-0.60;99.90
46091;DHT22;31826;53.572;10.170;2023-12-04T13:30:12;-0.60;99.90
46091;DHT22;31826;53.572;10.170;2023-12-04T13:32:38;-0.50;99.90
46091;DHT22;31826;53.572;10.170;2023-12-04T13:35:05;-0.50;99.90
46091;DHT22;31826;53.572;10.170;2023-12-04T13:37:34;-0.60;99.90
46091;DHT22;31826;53.572;10.170;2023-12-04T13:40:02;-0.50;99.90
46091;DHT22;31826;53.572;10.170;2023-12-04T13:42:38;-0.50;99.90
46091;DHT22;31826;53.572;10.170;2023-12-04T13:45:23;-0.50;99.90
46091;DHT22;31826;53.572;10.170;2023-12-04T13:47:49;-0.60;99.90
46091;DHT22;31826;53.572;10.170;2023-12-04T13:50:15;-0.50;99.90
46091;DHT22;31826;53.572;10.170;2023-12-04T13:52:41;-0.50;99.90
46091;DHT22;31826;53.572;10.170;2023-12-04T13:55:08;-0.60;99.90
46091;DHT22;31826;53.572;10.170;2023-12-04T13:57:45;-0.60;99.90
46091;DHT22;31826;53.572;10.170;2023-12-04T14:00:25;-0.50;99.90
46091;DHT22;31826;53.572;10.170;2023-12-04T14:02:51;-0.60;99.90
46091;DHT22;31826;53.572;10.170;2023-12-04T14:05:29;-0.60;99.90
46091;DHT22;31826;53.572;10.170;2023-12-04T14:07:55;-0.60;99.90
46091;DHT22;31826;53.572;10.170;2023-12-04T14:10:22;-0.70;99.90
46091;DHT22;31826;53.572;10.170;2023-12-04T14:12:48;-0.70;99.90
46091;DHT22;31826;53.572;10.170;2023-12-04T14:15:13;-0.60;99.90
46091;DHT22;31826;53.572;10.170;2023-12-04T14:17:39;-0.70;99.90
46091;DHT22;31826;53.572;10.170;2023-12-04T14:20:08;-0.70;99.90
46091;DHT22;31826;53.572;10.170;2023-12-04T14:22:40;-0.70;99.90
46091;DHT22;31826;53.572;10.170;2023-12-04T14:25:06;-0.70;99.90
46091;DHT22;31826;53.572;10.170;2023-12-04T14:27:32;-0.70;99.90
46091;DHT22;31826;53.572;10.170;2023-12-04T14:29:58;-0.60;99.90
46091;DHT22;31826;53.572;10.170;2023-12-04T14:32:24;-0.80;99.90
46091;DHT22;31826;53.572;10.170;2023-12-04T14:34:49;-0.70;99.90
46091;DHT22;31826;53.572;10.170;2023-12-04T14:37:15;-0.70;99.90
46091;DHT22;31826;53.572;10.170;2023-12-04T14:39:41;-0.80;99.90
46091;DHT22;31826;53.572;10.170;2023-12-04T14:42:07;-0.80;99.90
46091;DHT22;31826;53.572;10.170;2023-12-04T14:44:32;-0.70;99.90
46091;DHT22;31826;53.572;10.170;2023-12-04T14:46:59;-0.80;99.90
46091;DHT22;31826;53.572;10.170;2023-12-04T14:49:25;-0.80;99.90
46091;DHT22;31826;53.572;10.170;2023-12-04T14:51:50;-0.80;99.90
46091;DHT22;31826;53.572;10.170;2023-12-04T14:54:16;-0.70;99.90
46091;DHT22;31826;53.572;10.170;2023-12-04T14:57:02;-0.80;99.90
46091;DHT22;31826;53.572;10.170;2023-12-04T14:59:31;-0.80;99.90
46091;DHT22;31826;53.572;10.170;2023-12-04T15:02:15;-0.80;99.90
46091;DHT22;31826;53.572;10.170;2023-12-04T15:04:59;-0.80;99.90
46091;DHT22;31826;53.572;10.170;2023-12-04T15:07:43;-0.90;99.90
46091;DHT22;31826;53.572;10.170;2023-12-04T15:10:18;-0.90;99.90
46091;DHT22;31826;53.572;10.170;2023-12-04T15:12:49;-0.90;99.90
46091;DHT22;31826;53.572;10.170;2023-12-04T15:15:30;-0.80;99.90
46091;DHT22;31826;53.572;10.170;2023-12-04T15:17:56;-0.80;99.90
46091;DHT22;31826;53.572;10.170;2023-12-04T15:20:42;-0.80;99.90